Time,TemperatureF,DewpointF,PressureIn,WindDirection,WindDirectionDegrees,WindSpeedMPH,WindSpeedGustMPH,Humidity,HourlyPrecipIn,Conditions,Clouds,dailyrainin,SoftwareType,DateUTC
2013-01-26 00:04:00,50.7,46.6,31.00,SSW,203,0.0,0.0,86,0.02,,,0.00,WUHU216HW,2013-01-26 07:04:00,
2013-01-26 00:09:00,50.9,47.1,30.99,WSW,248,0.0,2.4,87,0.02,,,0.00,WUHU216HW,2013-01-26 07:09:00,
2013-01-26 00:14:00,50.9,47.1,30.99,WSW,248,1.5,3.5,87,0.02,,,0.00,WUHU216HW,2013-01-26 07:14:00,
2013-01-26 00:19:00,51.0,47.2,30.99,WSW,248,1.5,5.3,87,0.04,,,0.02,WUHU216HW,2013-01-26 07:19:00,
2013-01-26 00:25:00,50.9,47.1,30.98,WSW,248,3.8,5.3,87,0.02,,,0.02,WUHU216HW,2013-01-26 07:25:00,
2013-01-26 00:30:00,50.9,47.1,30.98,WSW,248,2.6,4.0,87,0.02,,,0.02,WUHU216HW,2013-01-26 07:30:00,
2013-01-26 00:35:00,50.9,47.1,30.98,WSW,248,0.0,5.5,87,0.02,,,0.02,WUHU216HW,2013-01-26 07:35:00,
2013-01-26 00:40:00,50.9,47.1,30.98,WSW,248,2.6,5.5,87,0.02,,,0.02,WUHU216HW,2013-01-26 07:40:00,
2013-01-26 00:45:00,50.9,47.4,30.97,SW,225,4.4,7.1,88,0.02,,,0.02,WUHU216HW,2013-01-26 07:45:00,
2013-01-26 00:50:00,50.9,47.1,30.97,SW,225,0.0,7.1,87,0.02,,,0.02,WUHU216HW,2013-01-26 07:50:00,
2013-01-26 00:55:00,50.9,47.1,30.97,SW,225,1.3,6.7,87,0.02,,,0.02,WUHU216HW,2013-01-26 07:55:00,
2013-01-26 01:00:00,50.9,47.1,30.97,SSW,203,4.0,7.8,87,0.02,,,0.02,WUHU216HW,2013-01-26 08:00:00,
2013-01-26 01:05:00,50.9,47.1,30.97,SSW,203,2.0,7.8,87,0.02,,,0.02,WUHU216HW,2013-01-26 08:05:00,
2013-01-26 01:10:00,50.9,47.1,30.96,SSW,203,0.0,2.6,87,0.02,,,0.02,WUHU216HW,2013-01-26 08:10:00,
2013-01-26 01:16:00,50.9,47.1,30.96,SSW,203,0.0,2.6,87,0.00,,,0.02,WUHU216HW,2013-01-26 08:16:00,
2013-01-26 01:21:00,50.9,47.4,30.95,SSW,203,0.0,0.0,88,0.00,,,0.02,WUHU216HW,2013-01-26 08:21:00,
2013-01-26 01:26:00,51.0,47.5,30.95,WSW,248,0.0,3.1,88,0.00,,,0.02,WUHU216HW,2013-01-26 08:26:00,
2013-01-26 01:31:00,51.0,47.2,30.95,WSW,248,0.0,3.1,87,0.00,,,0.02,WUHU216HW,2013-01-26 08:31:00,
2013-01-26 01:36:00,51.0,47.2,30.94,WSW,248,0.0,0.0,87,0.00,,,0.02,WUHU216HW,2013-01-26 08:36:00,
2013-01-26 01:41:00,51.0,47.2,30.95,WSW,248,0.0,0.0,87,0.00,,,0.02,WUHU216HW,2013-01-26 08:41:00,
2013-01-26 01:46:00,50.9,47.1,30.94,WSW,248,0.0,0.0,87,0.00,,,0.02,WUHU216HW,2013-01-26 08:46:00,
2013-01-26 01:51:00,50.9,47.1,30.94,WSW,248,0.0,0.0,87,0.00,,,0.02,WUHU216HW,2013-01-26 08:51:00,
2013-01-26 01:56:00,50.9,47.1,30.94,WSW,248,3.5,4.0,87,0.00,,,0.02,WUHU216HW,2013-01-26 08:56:00,
2013-01-26 02:01:00,50.9,47.1,30.95,WSW,248,3.1,4.0,87,0.00,,,0.02,WUHU216HW,2013-01-26 09:01:00,
2013-01-26 02:07:00,50.9,47.1,30.95,WSW,248,3.1,3.1,87,0.00,,,0.02,WUHU216HW,2013-01-26 09:07:00,
2013-01-26 02:12:00,50.9,47.1,30.95,WSW,248,3.8,3.8,87,0.00,,,0.02,WUHU216HW,2013-01-26 09:12:00,
2013-01-26 02:17:00,50.7,46.9,30.95,WSW,248,0.0,3.8,88,0.00,,,0.02,WUHU216HW,2013-01-26 09:17:00,
2013-01-26 02:22:00,50.7,47.2,30.96,WSW,248,0.0,5.3,88,0.00,,,0.02,WUHU216HW,2013-01-26 09:22:00,
2013-01-26 02:27:00,50.7,47.2,30.96,SSW,203,3.3,6.0,88,0.02,,,0.02,WUHU216HW,2013-01-26 09:27:00,
2013-01-26 02:32:00,50.7,47.2,30.95,South,180,2.6,6.0,88,0.02,,,0.04,WUHU216HW,2013-01-26 09:32:00,
2013-01-26 02:37:00,50.5,47.0,30.95,South,180,0.0,5.8,88,0.02,,,0.04,WUHU216HW,2013-01-26 09:37:00,
2013-01-26 02:42:00,50.1,46.3,30.95,South,180,0.0,2.4,87,0.04,,,0.04,WUHU216HW,2013-01-26 09:42:00,
2013-01-26 02:47:00,50.1,46.6,30.95,South,180,0.0,0.0,88,0.04,,,0.06,WUHU216HW,2013-01-26 09:47:00,
2013-01-26 02:52:00,50.3,46.8,30.95,South,180,0.0,0.0,88,0.04,,,0.06,WUHU216HW,2013-01-26 09:52:00,
2013-01-26 02:57:00,50.3,46.8,30.94,South,180,0.0,0.0,88,0.04,,,0.06,WUHU216HW,2013-01-26 09:57:00,
2013-01-26 03:03:00,50.3,46.8,30.94,South,180,1.3,1.3,88,0.04,,,0.06,WUHU216HW,2013-01-26 10:03:00,
2013-01-26 03:08:00,50.3,46.8,30.94,SSW,203,3.8,3.8,88,0.04,,,0.06,WUHU216HW,2013-01-26 10:08:00,
2013-01-26 03:13:00,50.3,46.8,30.94,SW,225,7.8,7.8,88,0.04,,,0.06,WUHU216HW,2013-01-26 10:13:00,
2013-01-26 03:18:00,50.5,47.0,30.94,SSW,203,2.4,7.8,88,0.04,,,0.06,WUHU216HW,2013-01-26 10:18:00,
2013-01-26 03:23:00,50.5,47.0,30.94,SSW,203,0.0,3.5,88,0.04,,,0.06,WUHU216HW,2013-01-26 10:23:00,
2013-01-26 03:28:00,50.5,47.0,30.93,SSW,203,0.0,3.3,88,0.02,,,0.06,WUHU216HW,2013-01-26 10:28:00,
2013-01-26 03:33:00,50.5,47.0,30.93,SSW,203,0.0,1.5,88,0.02,,,0.06,WUHU216HW,2013-01-26 10:33:00,
2013-01-26 03:38:00,50.5,47.0,30.92,SW,225,0.0,3.3,88,0.02,,,0.06,WUHU216HW,2013-01-26 10:38:00,
2013-01-26 03:43:00,50.5,47.5,30.92,WSW,248,5.5,6.2,89,0.02,,,0.06,WUHU216HW,2013-01-26 10:43:00,
2013-01-26 03:48:00,50.7,47.5,30.92,WSW,248,0.0,6.2,89,0.02,,,0.08,WUHU216HW,2013-01-26 10:48:00,
2013-01-26 03:53:00,50.7,47.5,30.92,WSW,248,2.9,5.8,89,0.02,,,0.08,WUHU216HW,2013-01-26 10:53:00,
2013-01-26 03:58:00,50.7,47.5,30.92,WSW,248,0.0,6.9,89,0.02,,,0.08,WUHU216HW,2013-01-26 10:58:00,
2013-01-26 04:03:00,50.7,47.5,30.91,WSW,248,0.0,6.9,89,0.02,,,0.08,WUHU216HW,2013-01-26 11:03:00,
2013-01-26 04:08:00,50.7,47.5,30.91,WSW,248,0.0,3.8,89,0.02,,,0.08,WUHU216HW,2013-01-26 11:08:00,
2013-01-26 04:13:00,50.9,47.7,30.91,WSW,248,0.0,3.8,89,0.04,,,0.10,WUHU216HW,2013-01-26 11:13:00,
2013-01-26 04:18:00,50.9,47.7,30.91,WSW,248,0.0,0.0,89,0.04,,,0.10,WUHU216HW,2013-01-26 11:18:00,
2013-01-26 04:24:00,50.9,47.7,30.91,WSW,248,0.0,0.0,89,0.04,,,0.10,WUHU216HW,2013-01-26 11:24:00,
2013-01-26 04:29:00,50.9,47.7,30.91,WSW,248,0.0,0.0,89,0.04,,,0.10,WUHU216HW,2013-01-26 11:29:00,
2013-01-26 04:34:00,50.9,47.7,30.91,WSW,248,0.0,0.0,89,0.04,,,0.10,WUHU216HW,2013-01-26 11:34:00,
2013-01-26 04:39:00,51.0,47.8,30.90,WSW,248,0.0,0.0,89,0.04,,,0.10,WUHU216HW,2013-01-26 11:39:00,
2013-01-26 04:44:00,51.0,47.8,30.90,WSW,248,0.0,0.0,89,0.02,,,0.10,WUHU216HW,2013-01-26 11:44:00,
2013-01-26 04:49:00,51.0,47.8,30.91,WSW,248,0.0,0.0,89,0.02,,,0.10,WUHU216HW,2013-01-26 11:49:00,
2013-01-26 04:54:00,51.0,47.8,30.91,WSW,248,0.0,0.0,89,0.02,,,0.10,WUHU216HW,2013-01-26 11:54:00,
2013-01-26 04:59:00,51.0,47.8,30.91,WSW,248,0.0,0.0,89,0.02,,,0.10,WUHU216HW,2013-01-26 11:59:00,
2013-01-26 05:04:00,51.0,47.8,30.90,WSW,248,0.0,0.0,89,0.02,,,0.10,WUHU216HW,2013-01-26 12:04:00,
2013-01-26 05:09:00,51.0,47.8,30.90,WSW,248,0.0,0.0,89,0.00,,,0.10,WUHU216HW,2013-01-26 12:09:00,
2013-01-26 05:14:00,50.9,47.7,30.90,WSW,248,0.0,0.0,89,0.02,,,0.10,WUHU216HW,2013-01-26 12:14:00,
2013-01-26 05:19:00,50.7,47.5,30.89,WSW,248,0.0,0.0,89,0.02,,,0.12,WUHU216HW,2013-01-26 12:19:00,
2013-01-26 05:24:00,50.7,47.5,30.89,WSW,248,4.0,4.0,89,0.02,,,0.12,WUHU216HW,2013-01-26 12:24:00,
2013-01-26 05:29:00,50.7,47.5,30.89,WSW,248,0.0,4.0,89,0.02,,,0.12,WUHU216HW,2013-01-26 12:29:00,
2013-01-26 05:34:00,50.7,47.5,30.89,WSW,248,4.0,4.0,89,0.02,,,0.12,WUHU216HW,2013-01-26 12:34:00,
2013-01-26 05:39:00,50.5,47.3,30.89,WSW,248,0.0,4.9,89,0.04,,,0.14,WUHU216HW,2013-01-26 12:39:00,
2013-01-26 05:44:00,50.5,47.3,30.89,WSW,248,3.8,4.9,89,0.04,,,0.14,WUHU216HW,2013-01-26 12:44:00,
2013-01-26 05:50:00,50.5,47.3,30.89,SW,225,0.0,4.9,89,0.04,,,0.14,WUHU216HW,2013-01-26 12:50:00,
2013-01-26 05:55:00,50.3,47.4,30.89,WSW,248,3.1,4.9,90,0.04,,,0.14,WUHU216HW,2013-01-26 12:55:00,
2013-01-26 06:00:00,50.3,47.4,30.89,WSW,248,0.0,4.6,90,0.04,,,0.14,WUHU216HW,2013-01-26 13:00:00,
2013-01-26 06:05:00,50.3,47.4,30.89,WSW,248,0.0,3.8,90,0.04,,,0.14,WUHU216HW,2013-01-26 13:05:00,
2013-01-26 06:10:00,50.3,47.4,30.89,WSW,248,1.7,6.7,90,0.04,,,0.14,WUHU216HW,2013-01-26 13:10:00,
2013-01-26 06:15:00,50.3,47.4,30.88,WSW,248,1.5,6.7,90,0.04,,,0.16,WUHU216HW,2013-01-26 13:15:00,
2013-01-26 06:20:00,50.3,47.4,30.88,WSW,248,0.0,5.5,90,0.04,,,0.16,WUHU216HW,2013-01-26 13:20:00,
2013-01-26 06:25:00,50.3,47.4,30.88,WSW,248,0.0,5.8,90,0.04,,,0.16,WUHU216HW,2013-01-26 13:25:00,
2013-01-26 06:31:00,50.3,47.4,30.88,WSW,248,3.3,5.8,90,0.04,,,0.16,WUHU216HW,2013-01-26 13:31:00,
2013-01-26 06:36:00,50.5,47.6,30.88,SW,225,0.0,3.3,90,0.02,,,0.16,WUHU216HW,2013-01-26 13:36:00,
2013-01-26 06:41:00,50.5,47.6,30.88,SW,225,0.0,2.6,90,0.02,,,0.16,WUHU216HW,2013-01-26 13:41:00,
2013-01-26 06:46:00,50.5,47.6,30.88,SW,225,0.0,2.6,90,0.02,,,0.16,WUHU216HW,2013-01-26 13:46:00,
2013-01-26 06:51:00,50.5,47.6,30.88,SW,225,2.4,2.6,90,0.02,,,0.16,WUHU216HW,2013-01-26 13:51:00,
2013-01-26 06:56:00,50.5,47.6,30.88,SW,225,0.0,4.2,90,0.02,,,0.16,WUHU216HW,2013-01-26 13:56:00,
2013-01-26 07:01:00,50.5,47.6,30.88,SSW,203,4.4,4.4,90,0.02,,,0.16,WUHU216HW,2013-01-26 14:01:00,
2013-01-26 07:06:00,50.5,47.6,30.88,SSW,203,0.0,4.4,90,0.02,,,0.16,WUHU216HW,2013-01-26 14:06:00,
2013-01-26 07:11:00,50.5,47.6,30.88,SSW,203,0.0,3.3,90,0.00,,,0.16,WUHU216HW,2013-01-26 14:11:00,
2013-01-26 07:16:00,50.5,47.6,30.88,SSW,203,0.0,0.0,90,0.00,,,0.16,WUHU216HW,2013-01-26 14:16:00,
2013-01-26 07:21:00,50.5,47.6,30.88,SSW,203,0.0,0.0,90,0.00,,,0.16,WUHU216HW,2013-01-26 14:21:00,
2013-01-26 07:26:00,50.5,47.6,30.88,SSW,203,0.0,0.0,90,0.00,,,0.16,WUHU216HW,2013-01-26 14:26:00,
2013-01-26 07:32:00,50.5,47.6,30.88,SSW,203,0.0,0.0,90,0.00,,,0.16,WUHU216HW,2013-01-26 14:32:00,
2013-01-26 07:37:00,50.5,47.6,30.88,SSW,203,0.0,0.0,90,0.00,,,0.16,WUHU216HW,2013-01-26 14:37:00,
2013-01-26 07:42:00,50.5,47.6,30.88,SSW,203,0.0,0.0,90,0.00,,,0.16,WUHU216HW,2013-01-26 14:42:00,
2013-01-26 07:47:00,50.5,47.6,30.88,SSW,203,0.0,0.0,90,0.00,,,0.16,WUHU216HW,2013-01-26 14:47:00,
2013-01-26 07:52:00,50.5,47.6,30.88,SSW,203,0.0,0.0,90,0.00,,,0.16,WUHU216HW,2013-01-26 14:52:00,
2013-01-26 07:57:00,50.5,47.6,30.88,SSW,203,0.0,0.0,90,0.00,,,0.16,WUHU216HW,2013-01-26 14:57:00,
2013-01-26 08:02:00,50.5,47.6,30.88,SSW,203,0.0,0.0,90,0.00,,,0.16,WUHU216HW,2013-01-26 15:02:00,
2013-01-26 08:07:00,50.7,47.6,30.88,SSW,203,0.0,4.6,90,0.00,,,0.16,WUHU216HW,2013-01-26 15:07:00,
2013-01-26 08:12:00,50.5,47.6,30.88,SSW,203,2.9,4.6,90,0.00,,,0.16,WUHU216HW,2013-01-26 15:12:00,
2013-01-26 08:17:00,50.5,47.6,30.88,SSW,203,2.4,3.1,90,0.00,,,0.16,WUHU216HW,2013-01-26 15:17:00,
2013-01-26 08:22:00,50.5,47.6,30.88,SSW,203,4.0,5.8,90,0.02,,,0.18,WUHU216HW,2013-01-26 15:22:00,
2013-01-26 08:28:00,50.5,47.8,30.88,SSW,203,5.8,5.8,90,0.02,,,0.18,WUHU216HW,2013-01-26 15:28:00,
2013-01-26 08:33:00,50.7,47.8,30.88,SSW,203,3.3,5.8,90,0.02,,,0.18,WUHU216HW,2013-01-26 15:33:00,
2013-01-26 08:38:00,50.7,47.8,30.88,SSW,203,2.6,5.3,90,0.02,,,0.18,WUHU216HW,2013-01-26 15:38:00,
2013-01-26 08:43:00,50.9,48.0,30.88,SSW,203,4.6,7.3,90,0.02,,,0.18,WUHU216HW,2013-01-26 15:43:00,
2013-01-26 08:48:00,51.0,48.2,30.88,SSW,203,0.0,7.3,90,0.02,,,0.18,WUHU216HW,2013-01-26 15:48:00,
2013-01-26 08:53:00,51.0,48.2,30.88,SSW,203,3.5,5.5,90,0.02,,,0.18,WUHU216HW,2013-01-26 15:53:00,
2013-01-26 08:58:00,51.4,48.5,30.88,SSE,158,3.1,3.5,90,0.02,,,0.18,WUHU216HW,2013-01-26 15:58:00,
2013-01-26 09:03:00,51.6,48.7,30.88,SSE,158,0.0,3.1,90,0.02,,,0.18,WUHU216HW,2013-01-26 16:03:00,
2013-01-26 09:08:00,51.6,48.7,30.88,SSE,158,0.0,0.0,90,0.02,,,0.18,WUHU216HW,2013-01-26 16:08:00,
2013-01-26 09:13:00,51.6,48.7,30.88,SSE,158,0.0,0.0,90,0.02,,,0.18,WUHU216HW,2013-01-26 16:13:00,
2013-01-26 09:18:00,51.9,49.1,30.88,SSE,158,0.0,0.0,90,0.02,,,0.18,WUHU216HW,2013-01-26 16:18:00,
2013-01-26 09:23:00,51.9,49.1,30.88,SSE,158,0.0,0.0,90,0.00,,,0.18,WUHU216HW,2013-01-26 16:23:00,
2013-01-26 09:28:00,51.9,48.7,30.88,SSE,158,0.0,0.0,89,0.00,,,0.18,WUHU216HW,2013-01-26 16:28:00,
2013-01-26 09:33:00,52.1,48.9,30.87,SSE,158,0.0,0.0,89,0.00,,,0.18,WUHU216HW,2013-01-26 16:33:00,
2013-01-26 09:38:00,52.3,49.1,30.88,SSE,158,0.0,0.0,89,0.02,,,0.18,WUHU216HW,2013-01-26 16:38:00,
2013-01-26 09:43:00,52.5,49.3,30.88,SSE,158,0.0,0.0,89,0.02,,,0.20,WUHU216HW,2013-01-26 16:43:00,
2013-01-26 09:48:00,52.5,49.3,30.88,SSE,158,0.0,0.0,89,0.02,,,0.20,WUHU216HW,2013-01-26 16:48:00,
2013-01-26 09:54:00,52.8,49.6,30.88,SSE,158,0.0,0.0,89,0.02,,,0.20,WUHU216HW,2013-01-26 16:54:00,
2013-01-26 09:59:00,53.0,49.8,30.88,SSE,158,0.0,0.0,89,0.02,,,0.20,WUHU216HW,2013-01-26 16:59:00,
2013-01-26 10:04:00,53.2,50.0,30.88,SSE,158,0.0,0.0,89,0.02,,,0.20,WUHU216HW,2013-01-26 17:04:00,
2013-01-26 10:09:00,53.2,50.0,30.88,SSE,158,0.0,0.0,89,0.02,,,0.20,WUHU216HW,2013-01-26 17:09:00,
2013-01-26 10:14:00,53.2,50.0,30.88,SSE,158,0.0,0.0,89,0.02,,,0.20,WUHU216HW,2013-01-26 17:14:00,
2013-01-26 10:19:00,53.2,50.0,30.88,SSE,158,0.0,0.0,89,0.02,,,0.20,WUHU216HW,2013-01-26 17:19:00,
2013-01-26 10:24:00,52.8,49.6,30.88,SSE,158,0.0,0.0,89,0.02,,,0.20,WUHU216HW,2013-01-26 17:24:00,
2013-01-26 10:29:00,52.8,49.6,30.88,South,180,0.0,0.0,89,0.02,,,0.20,WUHU216HW,2013-01-26 17:29:00,
2013-01-26 10:34:00,52.8,49.3,30.89,South,180,0.0,0.0,88,0.02,,,0.20,WUHU216HW,2013-01-26 17:34:00,
2013-01-26 10:39:00,52.8,49.3,30.88,South,180,0.0,0.0,88,0.00,,,0.20,WUHU216HW,2013-01-26 17:39:00,
2013-01-26 10:44:00,52.8,49.3,30.88,South,180,0.0,0.0,88,0.00,,,0.20,WUHU216HW,2013-01-26 17:44:00,
2013-01-26 10:49:00,52.8,49.3,30.88,South,180,0.0,0.0,88,0.00,,,0.20,WUHU216HW,2013-01-26 17:49:00,
2013-01-26 10:54:00,53.2,49.7,30.88,South,180,0.0,0.0,88,0.00,,,0.20,WUHU216HW,2013-01-26 17:54:00,
2013-01-26 10:59:00,53.4,49.9,30.89,South,180,0.0,0.0,88,0.00,,,0.20,WUHU216HW,2013-01-26 17:59:00,
2013-01-26 11:04:00,53.7,50.2,30.89,South,180,0.0,0.0,88,0.00,,,0.20,WUHU216HW,2013-01-26 18:04:00,
2013-01-26 11:09:00,53.7,50.2,30.89,South,180,0.0,0.0,88,0.00,,,0.20,WUHU216HW,2013-01-26 18:09:00,
2013-01-26 11:14:00,53.9,50.4,30.89,South,180,0.0,0.0,88,0.00,,,0.20,WUHU216HW,2013-01-26 18:14:00,
2013-01-26 11:20:00,54.1,50.6,30.89,South,180,0.0,0.0,88,0.02,,,0.22,WUHU216HW,2013-01-26 18:20:00,
2013-01-26 11:25:00,53.7,49.9,30.89,East,90,0.0,0.0,87,0.02,,,0.22,WUHU216HW,2013-01-26 18:25:00,
2013-01-26 11:30:00,53.7,50.2,30.89,East,90,0.0,0.0,88,0.02,,,0.22,WUHU216HW,2013-01-26 18:30:00,
2013-01-26 11:35:00,53.7,50.2,30.89,East,90,0.0,0.0,88,0.02,,,0.22,WUHU216HW,2013-01-26 18:35:00,
2013-01-26 11:40:00,54.3,50.8,30.89,East,90,0.0,0.0,88,0.02,,,0.22,WUHU216HW,2013-01-26 18:40:00,
2013-01-26 11:45:00,54.6,50.8,30.89,East,90,0.0,0.0,87,0.02,,,0.22,WUHU216HW,2013-01-26 18:45:00,
2013-01-26 11:50:00,55.2,51.3,30.89,East,90,0.0,4.0,87,0.02,,,0.22,WUHU216HW,2013-01-26 18:50:00,
2013-01-26 11:55:00,55.2,51.3,30.88,East,90,0.0,4.0,87,0.02,,,0.22,WUHU216HW,2013-01-26 18:55:00,
2013-01-26 12:00:00,55.5,51.4,30.88,East,90,0.0,0.0,86,0.02,,,0.22,WUHU216HW,2013-01-26 19:00:00,
2013-01-26 12:05:00,55.7,51.2,30.89,East,90,0.0,0.0,85,0.02,,,0.22,WUHU216HW,2013-01-26 19:05:00,
2013-01-26 12:10:00,55.9,51.4,30.88,East,90,0.0,0.0,85,0.02,,,0.22,WUHU216HW,2013-01-26 19:10:00,
2013-01-26 12:15:00,56.3,51.8,30.88,East,90,0.0,0.0,85,0.00,,,0.22,WUHU216HW,2013-01-26 19:15:00,
2013-01-26 12:20:00,56.1,51.2,30.88,East,90,0.0,0.0,84,0.00,,,0.22,WUHU216HW,2013-01-26 19:20:00,
2013-01-26 12:25:00,55.7,50.9,30.87,East,90,0.0,0.0,84,0.00,,,0.22,WUHU216HW,2013-01-26 19:25:00,
2013-01-26 12:31:00,55.4,50.5,30.87,East,90,0.0,0.0,84,0.00,,,0.22,WUHU216HW,2013-01-26 19:31:00,
2013-01-26 12:36:00,55.0,50.2,30.87,East,90,0.0,0.0,84,0.00,,,0.22,WUHU216HW,2013-01-26 19:36:00,
2013-01-26 12:41:00,54.3,49.8,30.88,East,90,0.0,0.0,85,0.00,,,0.22,WUHU216HW,2013-01-26 19:41:00,
2013-01-26 12:46:00,53.9,49.5,30.87,East,90,4.2,4.2,85,0.00,,,0.22,WUHU216HW,2013-01-26 19:46:00,
2013-01-26 12:51:00,53.7,49.6,30.87,East,90,4.4,6.2,86,0.00,,,0.22,WUHU216HW,2013-01-26 19:51:00,
2013-01-26 12:56:00,53.4,49.6,30.87,ENE,68,3.5,8.9,87,0.02,,,0.25,WUHU216HW,2013-01-26 19:56:00,
2013-01-26 13:01:00,53.2,49.6,30.86,ENE,68,2.6,8.9,87,0.02,,,0.25,WUHU216HW,2013-01-26 20:01:00,
2013-01-26 13:06:00,53.4,49.9,30.86,ENE,68,6.7,6.7,88,0.04,,,0.27,WUHU216HW,2013-01-26 20:06:00,
2013-01-26 13:11:00,53.2,49.7,30.86,NE,45,4.4,6.9,88,0.04,,,0.27,WUHU216HW,2013-01-26 20:11:00,
2013-01-26 13:16:00,53.0,49.5,30.86,NE,45,6.2,6.9,88,0.04,,,0.27,WUHU216HW,2013-01-26 20:16:00,
2013-01-26 13:21:00,52.8,49.3,30.86,NE,45,8.7,8.7,88,0.04,,,0.27,WUHU216HW,2013-01-26 20:21:00,
2013-01-26 13:26:00,52.8,49.6,30.86,NE,45,4.9,10.5,89,0.04,,,0.27,WUHU216HW,2013-01-26 20:26:00,
2013-01-26 13:31:00,52.3,49.1,30.86,NE,45,6.2,10.5,89,0.06,,,0.29,WUHU216HW,2013-01-26 20:31:00,
2013-01-26 13:36:00,52.1,48.7,30.87,ENE,68,5.1,10.0,89,0.06,,,0.29,WUHU216HW,2013-01-26 20:36:00,
2013-01-26 13:41:00,51.9,48.6,30.86,ENE,68,8.5,10.0,89,0.06,,,0.29,WUHU216HW,2013-01-26 20:41:00,
2013-01-26 13:46:00,51.8,48.6,30.86,ENE,68,7.8,8.5,89,0.06,,,0.29,WUHU216HW,2013-01-26 20:46:00,
2013-01-26 13:51:00,51.8,48.6,30.85,ENE,68,5.5,7.8,89,0.04,,,0.29,WUHU216HW,2013-01-26 20:51:00,
2013-01-26 13:56:00,51.8,48.6,30.85,ENE,68,4.2,6.4,89,0.04,,,0.29,WUHU216HW,2013-01-26 20:56:00,
2013-01-26 14:02:00,51.9,48.7,30.86,ENE,68,4.2,5.5,89,0.02,,,0.29,WUHU216HW,2013-01-26 21:02:00,
2013-01-26 14:07:00,51.9,48.9,30.85,ENE,68,0.0,4.2,89,0.02,,,0.29,WUHU216HW,2013-01-26 21:07:00,
2013-01-26 14:12:00,52.5,49.3,30.84,ENE,68,0.0,0.4,89,0.02,,,0.29,WUHU216HW,2013-01-26 21:12:00,
2013-01-26 14:17:00,53.2,50.0,30.85,ENE,68,4.0,4.0,89,0.02,,,0.29,WUHU216HW,2013-01-26 21:17:00,
2013-01-26 14:22:00,53.4,50.2,30.85,ENE,68,0.0,4.0,89,0.02,,,0.29,WUHU216HW,2013-01-26 21:22:00,
2013-01-26 14:27:00,54.3,51.1,30.85,ENE,68,0.0,5.1,89,0.00,,,0.29,WUHU216HW,2013-01-26 21:27:00,
2013-01-26 14:32:00,55.2,52.0,30.85,ENE,68,3.5,5.1,89,0.00,,,0.29,WUHU216HW,2013-01-26 21:32:00,
2013-01-26 14:37:00,55.4,51.8,30.85,ENE,68,2.6,5.8,88,0.00,,,0.29,WUHU216HW,2013-01-26 21:37:00,
2013-01-26 14:42:00,55.2,51.6,30.85,ENE,68,2.9,6.0,88,0.00,,,0.29,WUHU216HW,2013-01-26 21:42:00,
2013-01-26 14:47:00,54.8,51.0,30.85,ENE,68,5.5,6.0,87,0.00,,,0.29,WUHU216HW,2013-01-26 21:47:00,
2013-01-26 14:52:00,54.3,50.1,30.85,ENE,68,0.8,5.5,86,0.00,,,0.29,WUHU216HW,2013-01-26 21:52:00,
2013-01-26 14:57:00,54.3,50.1,30.85,ENE,68,5.3,5.5,86,0.00,,,0.29,WUHU216HW,2013-01-26 21:57:00,
2013-01-26 15:02:00,54.1,50.0,30.86,ENE,68,2.6,5.5,86,0.00,,,0.29,WUHU216HW,2013-01-26 22:02:00,
2013-01-26 15:07:00,53.7,49.6,30.86,ENE,68,4.2,5.1,86,0.00,,,0.29,WUHU216HW,2013-01-26 22:07:00,
2013-01-26 15:13:00,53.6,49.6,30.86,ENE,68,0.0,4.6,86,0.00,,,0.29,WUHU216HW,2013-01-26 22:13:00,
2013-01-26 15:18:00,53.4,49.3,30.86,ENE,68,3.1,4.2,86,0.02,,,0.29,WUHU216HW,2013-01-26 22:18:00,
2013-01-26 15:23:00,53.4,49.6,30.86,ENE,68,2.0,3.1,87,0.02,,,0.31,WUHU216HW,2013-01-26 22:23:00,
2013-01-26 15:28:00,53.2,49.4,30.86,ENE,68,1.7,5.3,87,0.02,,,0.31,WUHU216HW,2013-01-26 22:28:00,
2013-01-26 15:33:00,53.2,49.4,30.86,ENE,68,4.0,21.9,87,0.02,,,0.31,WUHU216HW,2013-01-26 22:33:00,
2013-01-26 15:38:00,52.8,49.3,30.86,ENE,68,6.2,21.9,88,0.02,,,0.31,WUHU216HW,2013-01-26 22:38:00,
2013-01-26 15:43:00,52.8,49.3,30.86,NE,45,2.4,6.2,88,0.02,,,0.31,WUHU216HW,2013-01-26 22:43:00,
2013-01-26 15:48:00,52.8,49.3,30.86,NE,45,2.6,6.2,88,0.02,,,0.31,WUHU216HW,2013-01-26 22:48:00,
2013-01-26 15:53:00,52.8,49.6,30.86,NE,45,4.6,6.2,89,0.02,,,0.31,WUHU216HW,2013-01-26 22:53:00,
2013-01-26 15:58:00,52.7,49.5,30.86,NE,45,3.8,4.6,89,0.02,,,0.31,WUHU216HW,2013-01-26 22:58:00,
2013-01-26 16:03:00,52.8,49.6,30.86,NE,45,2.6,5.5,89,0.02,,,0.31,WUHU216HW,2013-01-26 23:03:00,
2013-01-26 16:09:00,52.8,49.6,30.86,NE,45,2.9,5.5,89,0.02,,,0.31,WUHU216HW,2013-01-26 23:09:00,
2013-01-26 16:14:00,53.0,49.8,30.86,NE,45,5.5,5.5,89,0.02,,,0.31,WUHU216HW,2013-01-26 23:14:00,
2013-01-26 16:19:00,52.8,49.6,30.86,NE,45,3.3,5.5,89,0.00,,,0.31,WUHU216HW,2013-01-26 23:19:00,
2013-01-26 16:24:00,52.8,49.6,30.86,NE,45,3.1,7.1,89,0.00,,,0.31,WUHU216HW,2013-01-26 23:24:00,
2013-01-26 16:29:00,53.2,50.0,30.86,NE,45,3.1,7.1,89,0.00,,,0.31,WUHU216HW,2013-01-26 23:29:00,
2013-01-26 16:34:00,53.2,50.0,30.86,NE,45,8.5,9.1,89,0.00,,,0.31,WUHU216HW,2013-01-26 23:34:00,
2013-01-26 16:39:00,52.8,49.6,30.86,NE,45,6.0,9.1,89,0.00,,,0.31,WUHU216HW,2013-01-26 23:39:00,
2013-01-26 16:44:00,53.0,49.6,30.86,NE,45,4.4,8.2,89,0.00,,,0.31,WUHU216HW,2013-01-26 23:44:00,
2013-01-26 16:49:00,52.8,49.6,30.86,NE,45,6.7,8.2,89,0.00,,,0.31,WUHU216HW,2013-01-26 23:49:00,
2013-01-26 16:54:00,52.8,49.6,30.86,NNE,23,7.6,9.3,89,0.00,,,0.31,WUHU216HW,2013-01-26 23:54:00,
2013-01-26 16:59:00,52.7,49.5,30.86,NNE,23,5.5,9.6,89,0.00,,,0.31,WUHU216HW,2013-01-26 23:59:00,
2013-01-26 17:05:00,52.5,49.5,30.86,NNE,23,5.5,9.6,89,0.00,,,0.31,WUHU216HW,2013-01-27 00:05:00,
2013-01-26 17:10:00,52.7,49.5,30.87,NNE,23,7.6,9.1,89,0.00,,,0.31,WUHU216HW,2013-01-27 00:10:00,
2013-01-26 17:15:00,52.5,49.3,30.87,NNE,23,7.6,8.7,89,0.00,,,0.31,WUHU216HW,2013-01-27 00:15:00,
2013-01-26 17:20:00,52.5,49.3,30.87,NNE,23,6.9,13.1,89,0.00,,,0.31,WUHU216HW,2013-01-27 00:20:00,
2013-01-26 17:25:00,52.5,49.3,30.87,NNE,23,6.2,13.1,89,0.00,,,0.31,WUHU216HW,2013-01-27 00:25:00,